Time;durP1;ratioP1;P1;durP2;ratioP2;P2;SDS_P1;SDS_P2;PMS_P1;PMS_P2;Temp;Humidity;BMP_temperature;BMP_pressure;BME280_temperature;BME280_humidity;BME280_pressure;Samples;Min_cycle;Max_cycle;Signal;HPM_P1;HPM_P2
2023/10/28 00:01:53;;;;;;;0.00;0.00;;;10.80;99.90;;;;;;5092721;28;20202;-61
2023/10/28 00:04:19;;;;;;;0.00;0.00;;;10.80;99.90;;;;;;5093258;28;20170;-61
2023/10/28 00:06:44;;;;;;;0.00;0.00;;;10.80;99.90;;;;;;5092730;28;20255;-61
2023/10/28 00:09:10;;;;;;;0.00;0.00;;;10.80;99.90;;;;;;5093044;28;20196;-61
2023/10/28 00:11:36;;;;;;;0.00;0.00;;;10.80;99.90;;;;;;5091481;28;20183;-61
2023/10/28 00:14:02;;;;;;;0.00;0.00;;;10.80;99.90;;;;;;5091674;28;20208;-61
2023/10/28 00:16:27;;;;;;;0.00;0.00;;;10.80;99.90;;;;;;5093082;28;20192;-60
2023/10/28 00:18:53;;;;;;;0.00;0.00;;;10.80;99.90;;;;;;5092844;28;20188;-60
2023/10/28 00:21:18;;;;;;;0.00;0.00;;;10.80;99.90;;;;;;5092917;28;20180;-61
2023/10/28 00:23:44;;;;;;;0.00;0.00;;;10.80;99.90;;;;;;5091594;28;20176;-60
2023/10/28 00:26:10;;;;;;;0.00;0.00;;;10.80;99.90;;;;;;5092616;28;20180;-60
2023/10/28 00:28:36;;;;;;;0.00;0.00;;;10.70;99.90;;;;;;5092698;28;20176;-60
2023/10/28 00:31:04;;;;;;;0.00;0.00;;;10.60;99.90;;;;;;5092802;28;20184;-60
2023/10/28 00:33:30;;;;;;;0.00;0.00;;;10.60;99.90;;;;;;5092567;28;20232;-60
2023/10/28 00:35:55;;;;;;;0.00;0.00;;;10.60;99.90;;;;;;5092394;28;20188;-60
2023/10/28 00:38:22;;;;;;;0.00;0.00;;;10.60;99.90;;;;;;5092593;28;20673;-60
2023/10/28 00:40:48;;;;;;;0.00;0.00;;;10.60;99.90;;;;;;5092024;28;20176;-60
2023/10/28 00:43:14;;;;;;;0.00;0.00;;;10.60;99.90;;;;;;5092445;28;20194;-61
2023/10/28 00:45:40;;;;;;;0.00;0.00;;;10.60;99.90;;;;;;5092060;28;20188;-61
2023/10/28 00:48:06;;;;;;;0.00;0.00;;;10.60;99.90;;;;;;5091928;28;20180;-60
2023/10/28 00:50:32;;;;;;;0.00;0.00;;;10.60;99.90;;;;;;5092063;28;20175;-60
2023/10/28 00:53:00;;;;;;;0.00;0.00;;;10.60;99.90;;;;;;5090822;28;20180;-60
2023/10/28 00:55:29;;;;;;;0.00;0.00;;;10.50;99.90;;;;;;5092324;28;20176;-60
2023/10/28 00:57:55;;;;;;;0.00;0.00;;;10.50;99.90;;;;;;5091362;28;20212;-60
2023/10/28 01:00:20;;;;;;;0.00;0.00;;;10.50;99.90;;;;;;5091885;28;20274;-61
2023/10/28 01:02:46;;;;;;;0.00;0.00;;;10.50;99.90;;;;;;5092006;28;20211;-60
2023/10/28 01:05:13;;;;;;;0.00;0.00;;;10.50;99.90;;;;;;5092046;28;20643;-60
2023/10/28 01:07:44;;;;;;;0.00;0.00;;;10.40;99.90;;;;;;5087017;28;20176;-60
2023/10/28 01:10:10;;;;;;;0.00;0.00;;;10.40;99.90;;;;;;5091910;28;20187;-60
2023/10/28 01:12:37;;;;;;;0.00;0.00;;;10.40;99.90;;;;;;5091538;28;20681;-60
2023/10/28 01:15:03;;;;;;;0.00;0.00;;;10.40;99.90;;;;;;5090707;28;20188;-61
2023/10/28 01:17:29;;;;;;;0.00;0.00;;;10.40;99.90;;;;;;5091180;28;20207;-61
2023/10/28 01:19:56;;;;;;;0.00;0.00;;;10.40;99.90;;;;;;5091942;28;20195;-60
2023/10/28 01:22:23;;;;;;;0.00;0.00;;;10.40;99.90;;;;;;5087903;28;20189;-60
2023/10/28 01:24:50;;;;;;;0.00;0.00;;;10.40;99.90;;;;;;5089511;28;20176;-61
2023/10/28 01:27:17;;;;;;;0.00;0.00;;;10.40;99.90;;;;;;5091927;28;20180;-59
2023/10/28 01:29:42;;;;;;;0.00;0.00;;;10.40;99.90;;;;;;5091597;28;20637;-61
2023/10/28 01:32:08;;;;;;;0.00;0.00;;;10.30;99.90;;;;;;5091288;28;20219;-60
2023/10/28 01:34:50;;;;;;;0.00;0.00;;;10.30;99.90;;;;;;5091807;28;20180;-60
2023/10/28 01:37:16;;;;;;;0.13;0.13;;;10.30;99.90;;;;;;5091519;28;20211;-60
2023/10/28 01:39:50;;;;;;;0.00;0.00;;;10.20;99.90;;;;;;5091889;28;20172;-60
2023/10/28 01:42:16;;;;;;;0.00;0.00;;;10.20;99.90;;;;;;5091369;28;20535;-60
2023/10/28 01:44:42;;;;;;;0.00;0.00;;;10.20;99.90;;;;;;5090910;28;20180;-60
2023/10/28 01:47:10;;;;;;;0.00;0.00;;;10.20;99.90;;;;;;5091201;28;20184;-60
2023/10/28 01:49:36;;;;;;;0.00;0.00;;;10.20;99.90;;;;;;5091187;28;20577;-60
2023/10/28 01:52:03;;;;;;;0.00;0.00;;;10.10;99.90;;;;;;5091091;28;20519;-60
2023/10/28 01:54:33;;;;;;;0.00;0.00;;;10.10;99.90;;;;;;5091122;28;20183;-61
2023/10/28 01:56:59;;;;;;;0.00;0.00;;;10.10;99.90;;;;;;5091323;28;20211;-61
2023/10/28 01:59:25;;;;;;;0.00;0.00;;;10.10;99.90;;;;;;5090116;28;20186;-60
2023/10/28 02:01:51;;;;;;;0.00;0.00;;;10.10;99.90;;;;;;5090956;28;20275;-60
2023/10/28 02:04:16;;;;;;;0.00;0.00;;;10.10;99.90;;;;;;5091268;28;20613;-60
2023/10/28 02:06:44;;;;;;;0.00;0.00;;;10.10;99.90;;;;;;5091398;28;20191;-60
2023/10/28 02:09:10;;;;;;;0.00;0.00;;;10.00;99.90;;;;;;5091206;28;20182;-60
2023/10/28 02:11:39;;;;;;;0.00;0.00;;;10.00;99.90;;;;;;5091129;28;20576;-60
2023/10/28 02:14:05;;;;;;;0.00;0.00;;;10.00;99.90;;;;;;5091421;28;20176;-60
2023/10/28 02:16:30;;;;;;;0.00;0.00;;;10.00;99.90;;;;;;5090680;28;20225;-60
2023/10/28 02:18:56;;;;;;;0.00;0.00;;;10.00;99.90;;;;;;5091120;28;20176;-60
2023/10/28 02:21:21;;;;;;;0.00;0.00;;;10.00;99.90;;;;;;5091243;28;20190;-59
2023/10/28 02:23:47;;;;;;;0.00;0.00;;;9.90;99.90;;;;;;5091058;28;20654;-60
2023/10/28 02:26:12;;;;;;;0.00;0.00;;;9.90;99.90;;;;;;5091287;28;20223;-60
2023/10/28 02:28:38;;;;;;;0.00;0.00;;;9.90;99.90;;;;;;5090885;28;20180;-60
2023/10/28 02:31:09;;;;;;;0.00;0.00;;;9.80;99.90;;;;;;5090851;28;20176;-60
2023/10/28 02:33:35;;;;;;;0.00;0.00;;;9.80;99.90;;;;;;5070665;28;20863;-61
2023/10/28 02:36:05;;;;;;;0.00;0.00;;;9.80;99.90;;;;;;5073960;28;20184;-60
2023/10/28 02:38:32;;;;;;;0.00;0.00;;;9.80;99.90;;;;;;5088213;28;20204;-60
2023/10/28 02:40:58;;;;;;;0.00;0.00;;;9.90;99.90;;;;;;5095170;28;20215;-60
2023/10/28 02:43:23;;;;;;;0.00;0.00;;;9.80;99.90;;;;;;5095207;28;20175;-60
2023/10/28 02:45:49;;;;;;;0.00;0.00;;;9.80;99.90;;;;;;5095166;28;20172;-60
2023/10/28 02:48:14;;;;;;;0.00;0.00;;;9.80;99.90;;;;;;5094710;28;20206;-61
2023/10/28 02:50:40;;;;;;;0.00;0.00;;;9.90;99.90;;;;;;5094972;28;20275;-60
2023/10/28 02:53:06;;;;;;;0.00;0.00;;;9.90;99.90;;;;;;5094864;28;20172;-60
2023/10/28 02:55:35;;;;;;;0.00;0.00;;;9.90;99.90;;;;;;5095013;28;20180;-60
2023/10/28 02:58:01;;;;;;;0.00;0.00;;;9.90;99.90;;;;;;5093887;28;20219;-60
2023/10/28 03:00:26;;;;;;;0.00;0.00;;;9.90;99.90;;;;;;5092972;28;20566;-60
2023/10/28 03:02:55;;;;;;;0.00;0.00;;;10.00;99.90;;;;;;5094095;28;20180;-60
2023/10/28 03:05:22;;;;;;;0.00;0.00;;;10.00;99.90;;;;;;5092817;28;20187;-60
2023/10/28 03:07:48;;;;;;;0.00;0.00;;;10.00;99.90;;;;;;5094392;28;20283;-60
2023/10/28 03:10:13;;;;;;;0.00;0.00;;;10.00;99.90;;;;;;5094185;28;20262;-60
2023/10/28 03:12:39;;;;;;;0.00;0.00;;;10.00;99.90;;;;;;5094308;28;20252;-60
2023/10/28 03:15:05;;;;;;;0.00;0.00;;;10.00;99.90;;;;;;5093182;28;20703;-60
2023/10/28 03:17:31;;;;;;;0.00;0.00;;;10.00;99.90;;;;;;5094141;28;20349;-60
2023/10/28 03:19:57;;;;;;;0.00;0.00;;;10.10;99.90;;;;;;5092878;28;20217;-60
2023/10/28 03:22:22;;;;;;;0.00;0.00;;;10.10;99.90;;;;;;5094289;28;20241;-60
2023/10/28 03:24:48;;;;;;;0.00;0.00;;;10.10;99.90;;;;;;5093021;28;20226;-61
2023/10/28 03:27:13;;;;;;;0.00;0.00;;;10.10;99.90;;;;;;5094153;28;20172;-60
2023/10/28 03:29:40;;;;;;;0.00;0.00;;;10.10;99.90;;;;;;5093954;28;20191;-60
2023/10/28 03:32:07;;;;;;;0.00;0.00;;;10.20;99.90;;;;;;5093030;28;20220;-60
2023/10/28 03:34:32;;;;;;;0.00;0.00;;;10.20;99.90;;;;;;5093779;28;20192;-61
2023/10/28 03:36:58;;;;;;;0.00;0.00;;;10.20;99.90;;;;;;5093936;28;20687;-60
2023/10/28 03:39:24;;;;;;;0.00;0.00;;;10.20;99.90;;;;;;5094004;28;20642;-60
2023/10/28 03:41:50;;;;;;;0.00;0.00;;;10.20;99.90;;;;;;5094129;28;20183;-59
2023/10/28 03:44:16;;;;;;;0.00;0.00;;;10.20;99.90;;;;;;5093834;28;20173;-60
2023/10/28 03:46:41;;;;;;;0.00;0.00;;;10.20;99.90;;;;;;5092688;28;20180;-60
2023/10/28 03:49:07;;;;;;;0.00;0.00;;;10.20;99.90;;;;;;5073736;28;20209;-60
2023/10/28 03:51:34;;;;;;;0.00;0.00;;;10.20;99.90;;;;;;5073616;28;20184;-60
2023/10/28 03:54:00;;;;;;;0.00;0.00;;;10.20;99.90;;;;;;5073574;28;20208;-60
2023/10/28 03:56:26;;;;;;;0.00;0.00;;;10.20;99.90;;;;;;5073339;28;20224;-61
2023/10/28 03:58:51;;;;;;;0.00;0.00;;;10.20;99.90;;;;;;5073530;28;20658;-61
2023/10/28 04:01:17;;;;;;;0.00;0.00;;;10.20;99.90;;;;;;5080863;28;20184;-60
2023/10/28 04:03:42;;;;;;;0.00;0.00;;;10.20;99.90;;;;;;5093738;28;20184;-61
2023/10/28 04:06:08;;;;;;;0.00;0.00;;;10.20;99.90;;;;;;5093718;28;20184;-60
2023/10/28 04:08:34;;;;;;;0.00;0.00;;;10.20;99.90;;;;;;5093448;28;20176;-60
2023/10/28 04:10:59;;;;;;;0.00;0.00;;;10.20;99.90;;;;;;5093423;28;20180;-61
2023/10/28 04:13:25;;;;;;;0.00;0.00;;;10.20;99.90;;;;;;5093344;28;20202;-61
2023/10/28 04:15:50;;;;;;;0.00;0.00;;;10.20;99.90;;;;;;5092629;28;20270;-61
2023/10/28 04:18:16;;;;;;;0.00;0.00;;;10.30;99.90;;;;;;5091924;28;20280;-61
2023/10/28 04:20:41;;;;;;;0.00;0.00;;;10.30;99.90;;;;;;5092733;28;20259;-61
2023/10/28 04:23:07;;;;;;;0.00;0.00;;;10.30;99.90;;;;;;5091334;28;20203;-61
2023/10/28 04:25:32;;;;;;;0.00;0.00;;;10.30;99.90;;;;;;5092867;28;20204;-61
2023/10/28 04:27:58;;;;;;;0.00;0.00;;;10.40;99.90;;;;;;5092860;28;20172;-61
2023/10/28 04:30:23;;;;;;;0.00;0.00;;;10.40;99.90;;;;;;5092438;28;20187;-61
2023/10/28 04:32:49;;;;;;;0.00;0.00;;;10.40;99.90;;;;;;5090996;28;20597;-61
2023/10/28 04:35:15;;;;;;;0.00;0.00;;;10.40;99.90;;;;;;5092641;28;20176;-60
2023/10/28 04:37:40;;;;;;;0.00;0.00;;;10.50;99.90;;;;;;5092448;28;20265;-61
2023/10/28 04:40:06;;;;;;;0.00;0.00;;;10.50;99.90;;;;;;5092618;28;20183;-61
2023/10/28 04:42:32;;;;;;;0.00;0.00;;;10.50;99.90;;;;;;5091768;28;20180;-60
2023/10/28 04:44:58;;;;;;;0.00;0.00;;;10.50;99.90;;;;;;5089969;28;20190;-61
2023/10/28 04:47:24;;;;;;;0.00;0.00;;;10.50;99.90;;;;;;5091818;28;20183;-65
2023/10/28 04:49:50;;;;;;;0.00;0.00;;;10.70;99.90;;;;;;5092153;28;20188;-61
2023/10/28 04:52:15;;;;;;;0.00;0.00;;;11.30;99.90;;;;;;5092012;28;20179;-63
2023/10/28 04:54:41;;;;;;;0.00;0.00;;;11.50;99.90;;;;;;5092237;28;20639;-62
2023/10/28 04:57:09;;;;;;;0.00;0.00;;;11.50;99.90;;;;;;5091665;28;20200;-63
2023/10/28 04:59:34;;;;;;;0.00;0.00;;;11.40;99.90;;;;;;5091912;28;20201;-64
2023/10/28 05:02:00;;;;;;;0.00;0.00;;;11.30;99.90;;;;;;5092638;28;20362;-62
2023/10/28 05:04:26;;;;;;;0.00;0.00;;;11.20;99.90;;;;;;5092302;28;20210;-63
2023/10/28 05:06:53;;;;;;;0.00;0.00;;;11.00;99.90;;;;;;5092494;28;20179;-63
2023/10/28 05:09:20;;;;;;;0.00;0.00;;;10.90;99.90;;;;;;5091929;28;20259;-62
2023/10/28 05:11:46;;;;;;;0.00;0.00;;;10.80;99.90;;;;;;5090630;28;20511;-60
2023/10/28 05:14:12;;;;;;;0.00;0.00;;;10.70;99.90;;;;;;5091475;28;20203;-60
2023/10/28 05:16:37;;;;;;;0.00;0.00;;;10.70;99.90;;;;;;5091221;28;20253;-60
2023/10/28 05:19:03;;;;;;;0.00;0.00;;;10.60;99.90;;;;;;5092279;28;20256;-60
2023/10/28 05:21:29;;;;;;;0.00;0.00;;;10.60;99.90;;;;;;5091640;28;20180;-61
2023/10/28 05:23:54;;;;;;;0.00;0.00;;;10.60;99.90;;;;;;5092069;28;20293;-60
2023/10/28 05:26:20;;;;;;;0.00;0.00;;;10.50;99.90;;;;;;5092109;28;20191;-62
2023/10/28 05:28:50;;;;;;;0.00;0.00;;;10.50;99.90;;;;;;5092248;28;20184;-62
2023/10/28 05:31:15;;;;;;;0.00;0.00;;;10.50;99.90;;;;;;5092212;28;20208;-61
2023/10/28 05:33:41;;;;;;;0.00;0.00;;;10.50;99.90;;;;;;5091562;28;20266;-61
2023/10/28 05:36:07;;;;;;;0.00;0.00;;;10.40;99.90;;;;;;5091683;28;20635;-61
2023/10/28 05:38:32;;;;;;;0.00;0.00;;;10.40;99.90;;;;;;5091974;28;20184;-61
2023/10/28 05:40:58;;;;;;;0.00;0.00;;;10.40;99.90;;;;;;5090787;28;20179;-61
2023/10/28 05:43:23;;;;;;;0.00;0.00;;;10.40;99.90;;;;;;5091935;28;20222;-62
2023/10/28 05:45:49;;;;;;;0.00;0.00;;;10.40;99.90;;;;;;5091816;28;20175;-60
2023/10/28 05:48:17;;;;;;;0.00;0.00;;;10.30;99.90;;;;;;5090355;28;20168;-62
2023/10/28 05:50:42;;;;;;;0.00;0.00;;;10.30;99.90;;;;;;5091602;28;20172;-61
2023/10/28 05:53:08;;;;;;;0.00;0.00;;;10.30;99.90;;;;;;5091647;28;20543;-60
2023/10/28 05:55:33;;;;;;;0.00;0.00;;;10.30;99.90;;;;;;5091642;28;20180;-60
2023/10/28 05:57:59;;;;;;;0.00;0.00;;;10.30;99.90;;;;;;5091697;28;20246;-59
2023/10/28 06:00:25;;;;;;;0.00;0.00;;;10.30;99.90;;;;;;5091267;28;20266;-60
2023/10/28 06:02:50;;;;;;;0.00;0.00;;;10.30;99.90;;;;;;5091348;28;20608;-60
2023/10/28 06:05:16;;;;;;;0.00;0.00;;;10.30;99.90;;;;;;5091561;28;20168;-60
2023/10/28 06:07:47;;;;;;;0.00;0.00;;;10.30;99.90;;;;;;5091651;28;20211;-60
2023/10/28 06:10:13;;;;;;;0.00;0.00;;;10.30;99.90;;;;;;5091280;28;20187;-59
2023/10/28 06:12:39;;;;;;;0.00;0.00;;;10.30;99.90;;;;;;5091579;28;20188;-60
2023/10/28 06:15:05;;;;;;;0.00;0.00;;;10.30;99.90;;;;;;5091259;28;20180;-60
2023/10/28 06:17:30;;;;;;;0.00;0.00;;;10.30;99.90;;;;;;5090070;28;20226;-60
2023/10/28 06:19:56;;;;;;;0.00;0.00;;;10.30;99.90;;;;;;5091573;28;20521;-60
2023/10/28 06:22:21;;;;;;;0.00;0.00;;;10.40;99.90;;;;;;5090167;28;20191;-60
2023/10/28 06:24:49;;;;;;;0.00;0.00;;;10.40;99.90;;;;;;5091616;28;20217;-60
2023/10/28 06:27:14;;;;;;;0.25;0.25;;;10.40;99.90;;;;;;5091399;28;20172;-61
2023/10/28 06:29:40;;;;;;;0.00;0.00;;;10.50;99.90;;;;;;5091209;28;20187;-60
2023/10/28 06:32:09;;;;;;;0.00;0.00;;;10.50;99.90;;;;;;5091180;28;20219;-60
2023/10/28 06:34:35;;;;;;;0.00;0.00;;;10.50;99.90;;;;;;5091087;28;20180;-60
2023/10/28 06:37:01;;;;;;;0.00;0.00;;;10.50;99.90;;;;;;5089969;28;20340;-60
2023/10/28 06:39:26;;;;;;;0.00;0.00;;;10.50;99.90;;;;;;5091186;28;20256;-60
2023/10/28 06:41:52;;;;;;;0.00;0.00;;;10.60;99.90;;;;;;5091146;28;20180;-60
2023/10/28 06:44:19;;;;;;;0.00;0.00;;;10.60;99.90;;;;;;5091253;28;20172;-60
2023/10/28 06:46:45;;;;;;;0.00;0.00;;;10.60;99.90;;;;;;5091311;28;20568;-59
2023/10/28 06:49:11;;;;;;;0.00;0.00;;;10.60;99.90;;;;;;5091310;28;20176;-59
2023/10/28 06:51:37;;;;;;;0.00;0.00;;;10.60;99.90;;;;;;5091148;28;20229;-59
2023/10/28 06:54:03;;;;;;;0.00;0.00;;;10.60;99.90;;;;;;5091101;28;20658;-59
2023/10/28 06:56:29;;;;;;;0.00;0.00;;;10.60;99.90;;;;;;5091037;28;20555;-59
2023/10/28 06:58:55;;;;;;;0.00;0.00;;;10.70;99.90;;;;;;5091131;28;20628;-59
2023/10/28 07:01:20;;;;;;;0.00;0.00;;;10.70;99.90;;;;;;5091112;28;20618;-60
2023/10/28 07:03:47;;;;;;;0.00;0.00;;;10.70;99.90;;;;;;5091029;28;20176;-58
2023/10/28 07:06:15;;;;;;;0.00;0.00;;;10.80;99.90;;;;;;5090951;28;20180;-59
2023/10/28 07:08:41;;;;;;;0.00;0.00;;;10.80;99.90;;;;;;5091104;28;20631;-59
2023/10/28 07:11:07;;;;;;;0.00;0.00;;;10.90;99.90;;;;;;5089220;28;20202;-60
2023/10/28 07:13:33;;;;;;;0.00;0.00;;;11.10;99.90;;;;;;5090937;28;20219;-60
2023/10/28 07:16:02;;;;;;;0.00;0.00;;;11.20;99.90;;;;;;5091056;28;20659;-60
2023/10/28 07:18:29;;;;;;;0.55;0.55;;;11.20;99.90;;;;;;5090922;28;20220;-59
2023/10/28 07:20:55;;;;;;;0.00;0.00;;;11.20;99.90;;;;;;5092017;28;20655;-60
2023/10/28 07:23:20;;;;;;;0.00;0.00;;;11.20;99.90;;;;;;5094485;28;20235;-60
2023/10/28 07:25:46;;;;;;;0.00;0.00;;;11.20;99.90;;;;;;5094758;28;20183;-60
2023/10/28 07:28:14;;;;;;;0.00;0.00;;;11.10;99.90;;;;;;5094468;28;20225;-60
2023/10/28 07:30:51;;;;;;;0.00;0.00;;;11.10;99.90;;;;;;5094475;28;20172;-60
2023/10/28 07:33:18;;;;;;;0.00;0.00;;;11.10;99.90;;;;;;5094339;28;20227;-61
2023/10/28 07:35:44;;;;;;;0.00;0.00;;;11.10;99.90;;;;;;5094472;28;20573;-60
2023/10/28 07:38:12;;;;;;;0.00;0.00;;;11.20;99.90;;;;;;5094218;28;20208;-60
2023/10/28 07:40:39;;;;;;;0.00;0.00;;;11.30;99.90;;;;;;5094185;28;20202;-60
2023/10/28 07:43:05;;;;;;;0.00;0.00;;;11.40;99.90;;;;;;5094371;28;20631;-60
2023/10/28 07:45:31;;;;;;;0.00;0.00;;;11.60;99.90;;;;;;5093901;28;20184;-59
2023/10/28 07:47:57;;;;;;;0.00;0.00;;;11.80;99.90;;;;;;5092981;28;20226;-59
2023/10/28 07:50:22;;;;;;;0.00;0.00;;;11.90;99.90;;;;;;5094097;28;20164;-60
2023/10/28 07:52:48;;;;;;;0.00;0.00;;;11.90;99.90;;;;;;5093928;28;20176;-59
2023/10/28 07:55:13;;;;;;;0.00;0.00;;;12.00;99.90;;;;;;5093846;28;20179;-61
2023/10/28 07:57:39;;;;;;;0.00;0.00;;;12.00;99.90;;;;;;5093830;28;20212;-60
2023/10/28 08:00:05;;;;;;;0.05;0.00;;;12.00;99.90;;;;;;5092776;28;20172;-60
2023/10/28 08:02:31;;;;;;;0.00;0.00;;;12.00;99.90;;;;;;5093950;28;20176;-61
2023/10/28 08:04:57;;;;;;;0.00;0.00;;;12.00;99.90;;;;;;5093811;28;20549;-61
2023/10/28 08:07:24;;;;;;;0.10;0.10;;;12.20;99.90;;;;;;5092473;28;20594;-62
2023/10/28 08:09:50;;;;;;;0.00;0.00;;;12.50;99.90;;;;;;5093801;28;20177;-60
2023/10/28 08:12:16;;;;;;;0.00;0.00;;;12.70;99.90;;;;;;5093594;28;20637;-60
2023/10/28 08:14:44;;;;;;;0.00;0.00;;;12.90;99.90;;;;;;5092359;28;20183;-59
2023/10/28 08:17:10;;;;;;;0.00;0.00;;;12.90;99.90;;;;;;5092198;28;20212;-59
2023/10/28 08:19:36;;;;;;;0.00;0.00;;;12.90;99.90;;;;;;5093581;28;20175;-60
2023/10/28 08:22:01;;;;;;;0.00;0.00;;;12.90;99.90;;;;;;5092235;28;20175;-59
2023/10/28 08:24:27;;;;;;;0.00;0.00;;;12.90;99.90;;;;;;5093409;28;20267;-60
2023/10/28 08:26:53;;;;;;;0.00;0.00;;;12.80;99.90;;;;;;5093367;28;20172;-59
2023/10/28 08:29:19;;;;;;;0.00;0.00;;;12.70;99.90;;;;;;5093263;28;20190;-59
2023/10/28 08:31:44;;;;;;;0.00;0.00;;;12.60;99.90;;;;;;5092686;28;20203;-59
2023/10/28 08:34:10;;;;;;;0.00;0.00;;;12.60;99.90;;;;;;5092727;28;20188;-59
2023/10/28 08:36:36;;;;;;;0.00;0.00;;;12.50;99.90;;;;;;5092750;28;20248;-60
2023/10/28 08:39:03;;;;;;;0.00;0.00;;;12.50;99.90;;;;;;5093215;28;20180;-59
2023/10/28 08:41:29;;;;;;;0.00;0.00;;;12.50;99.90;;;;;;5093018;28;20195;-59
2023/10/28 08:43:58;;;;;;;0.00;0.00;;;12.50;99.90;;;;;;5092249;28;20199;-60
2023/10/28 08:46:24;;;;;;;0.00;0.00;;;12.50;99.90;;;;;;5092935;28;20176;-60
2023/10/28 08:48:52;;;;;;;0.00;0.00;;;12.60;99.90;;;;;;5093034;28;20194;-59
2023/10/28 08:51:18;;;;;;;0.00;0.00;;;12.60;99.90;;;;;;5092943;28;20537;-60
2023/10/28 08:53:45;;;;;;;0.00;0.00;;;12.60;99.90;;;;;;5092688;28;20183;-59
2023/10/28 08:56:16;;;;;;;0.00;0.00;;;12.70;99.90;;;;;;5091471;28;20710;-59
2023/10/28 08:58:42;;;;;;;0.00;0.00;;;12.70;99.90;;;;;;5092865;28;20176;-60
2023/10/28 09:01:08;;;;;;;0.00;0.00;;;12.80;99.90;;;;;;5092713;28;20627;-60
2023/10/28 09:03:37;;;;;;;0.00;0.00;;;12.90;99.90;;;;;;5092582;28;20172;-60
2023/10/28 09:06:04;;;;;;;0.00;0.00;;;13.00;99.90;;;;;;5092687;28;20500;-59
2023/10/28 09:08:29;;;;;;;0.00;0.00;;;13.10;99.90;;;;;;5092574;28;20175;-60
2023/10/28 09:10:56;;;;;;;0.00;0.00;;;13.20;99.90;;;;;;5092387;28;20259;-60
2023/10/28 09:13:23;;;;;;;0.00;0.00;;;13.30;99.90;;;;;;5092533;28;20167;-60
2023/10/28 09:15:51;;;;;;;0.00;0.00;;;13.40;99.90;;;;;;5092504;28;20520;-60
2023/10/28 09:18:16;;;;;;;0.00;0.00;;;13.50;99.90;;;;;;5092347;28;20690;-61
2023/10/28 09:20:42;;;;;;;0.00;0.00;;;13.50;99.90;;;;;;5074208;28;20179;-60
2023/10/28 09:23:08;;;;;;;0.00;0.00;;;13.60;99.90;;;;;;5092347;28;20192;-60
2023/10/28 09:25:36;;;;;;;0.00;0.00;;;13.60;99.90;;;;;;5092135;28;20283;-60
2023/10/28 09:28:07;;;;;;;0.00;0.00;;;13.70;99.90;;;;;;5092158;28;20550;-60
2023/10/28 09:30:46;;;;;;;0.20;0.20;;;13.70;99.90;;;;;;5071739;28;20631;-60
2023/10/28 09:33:13;;;;;;;0.05;0.05;;;13.90;99.90;;;;;;5071761;28;20235;-60
2023/10/28 09:35:44;;;;;;;0.00;0.00;;;14.10;99.90;;;;;;5071804;28;20172;-60
2023/10/28 09:38:11;;;;;;;0.00;0.00;;;14.30;99.90;;;;;;5071762;28;20762;-60
2023/10/28 09:40:37;;;;;;;0.00;0.00;;;14.40;99.90;;;;;;5071826;28;20259;-59
2023/10/28 09:43:04;;;;;;;0.00;0.00;;;14.60;99.90;;;;;;5071725;28;20318;-59
2023/10/28 09:45:30;;;;;;;0.10;0.10;;;14.80;99.90;;;;;;5071877;28;20548;-59
2023/10/28 09:48:02;;;;;;;0.00;0.00;;;14.90;99.90;;;;;;5071734;28;20544;-60
2023/10/28 09:50:37;;;;;;;0.00;0.00;;;14.90;99.90;;;;;;5071686;28;20533;-60
2023/10/28 09:53:03;;;;;;;0.00;0.00;;;14.70;99.90;;;;;;5071665;28;20647;-60
2023/10/28 09:55:42;;;;;;;0.00;0.00;;;14.70;99.90;;;;;;5071599;28;20188;-60
2023/10/28 09:58:21;;;;;;;0.00;0.00;;;14.50;99.90;;;;;;5071548;28;20208;-60
2023/10/28 10:00:50;;;;;;;0.00;0.00;;;14.50;99.90;;;;;;5070421;28;20538;-60
2023/10/28 10:03:22;;;;;;;0.00;0.00;;;14.50;99.90;;;;;;5071487;28;20176;-61
2023/10/28 10:05:49;;;;;;;0.00;0.00;;;14.50;99.90;;;;;;5071447;28;20651;-60
2023/10/28 10:08:22;;;;;;;0.00;0.00;;;14.60;99.90;;;;;;5071369;28;20624;-61
2023/10/28 10:10:52;;;;;;;0.00;0.00;;;14.50;99.90;;;;;;5071589;28;20172;-60
2023/10/28 10:13:18;;;;;;;0.00;0.00;;;14.50;99.90;;;;;;5071443;28;20173;-59
2023/10/28 10:15:52;;;;;;;0.00;0.00;;;14.50;99.90;;;;;;5071354;28;20230;-59
2023/10/28 10:18:45;;;;;;;0.00;0.00;;;14.50;99.90;;;;;;5071308;28;20289;-59
2023/10/28 10:21:18;;;;;;;0.00;0.00;;;14.60;99.90;;;;;;5063694;28;20189;-60
2023/10/28 10:23:51;;;;;;;0.00;0.00;;;14.80;99.90;;;;;;5070051;28;20215;-59
2023/10/28 10:26:28;;;;;;;0.00;0.00;;;14.80;99.90;;;;;;5071285;28;20184;-60
2023/10/28 10:28:56;;;;;;;0.00;0.00;;;14.80;99.90;;;;;;5077789;28;20332;-60
2023/10/28 10:31:34;;;;;;;0.00;0.00;;;14.90;99.90;;;;;;5091335;28;20189;-60
2023/10/28 10:34:06;;;;;;;0.00;0.00;;;14.90;99.90;;;;;;5091210;28;20236;-60
2023/10/28 10:36:40;;;;;;;0.00;0.00;;;15.10;99.90;;;;;;5091140;28;20274;-60
2023/10/28 10:39:19;;;;;;;0.08;0.08;;;15.20;99.90;;;;;;5091598;28;20172;-60
2023/10/28 10:41:52;;;;;;;0.00;0.00;;;15.20;99.90;;;;;;5091563;28;20230;-60
2023/10/28 10:44:37;;;;;;;0.08;0.08;;;15.40;99.90;;;;;;5091264;28;20199;-60
2023/10/28 10:47:05;;;;;;;0.00;0.00;;;15.40;99.90;;;;;;5091359;28;20573;-60
2023/10/28 10:49:31;;;;;;;0.00;0.00;;;15.40;99.90;;;;;;5091105;28;20168;-60
2023/10/28 10:51:59;;;;;;;0.00;0.00;;;15.40;99.90;;;;;;5091236;28;20183;-59
2023/10/28 10:54:29;;;;;;;0.00;0.00;;;15.40;99.90;;;;;;5091145;28;20531;-60
2023/10/28 10:56:55;;;;;;;0.00;0.00;;;15.40;99.90;;;;;;5092526;28;20207;-59
2023/10/28 10:59:20;;;;;;;0.00;0.00;;;15.40;99.90;;;;;;5095063;28;20183;-60
2023/10/28 11:01:46;;;;;;;0.00;0.00;;;15.40;99.90;;;;;;5095181;28;20179;-60
2023/10/28 11:04:12;;;;;;;0.00;0.00;;;15.50;99.90;;;;;;5093610;28;20255;-60
2023/10/28 11:06:37;;;;;;;0.08;0.08;;;15.50;99.90;;;;;;5095095;28;20293;-60
2023/10/28 11:09:05;;;;;;;0.00;0.00;;;15.50;99.90;;;;;;5094925;28;20851;-60
2023/10/28 11:11:35;;;;;;;0.00;0.00;;;15.50;99.90;;;;;;5094838;28;20187;-60
2023/10/28 11:14:02;;;;;;;0.00;0.00;;;15.50;99.90;;;;;;5094995;28;20180;-60
2023/10/28 11:16:28;;;;;;;0.00;0.00;;;15.50;99.90;;;;;;5094772;28;20164;-60
2023/10/28 11:18:54;;;;;;;0.10;0.10;;;15.40;99.90;;;;;;5094670;28;20233;-60
2023/10/28 11:21:30;;;;;;;0.00;0.00;;;15.20;99.90;;;;;;5094642;28;20578;-60
2023/10/28 11:23:56;;;;;;;0.00;0.00;;;15.10;99.90;;;;;;5094644;28;20643;-60
2023/10/28 11:26:23;;;;;;;0.00;0.00;;;14.90;99.90;;;;;;5094661;28;20187;-60
2023/10/28 11:28:48;;;;;;;0.00;0.00;;;14.90;99.90;;;;;;5094668;28;20229;-60
2023/10/28 11:31:18;;;;;;;0.10;0.10;;;14.80;99.90;;;;;;5093071;28;20693;-60
2023/10/28 11:33:45;;;;;;;0.00;0.00;;;14.80;99.90;;;;;;5094322;28;20304;-61
2023/10/28 11:36:11;;;;;;;0.00;0.00;;;14.80;99.90;;;;;;5094427;28;20187;-60
2023/10/28 11:38:36;;;;;;;0.00;0.00;;;14.90;99.90;;;;;;5094277;28;20212;-59
2023/10/28 11:41:08;;;;;;;0.00;0.00;;;15.00;99.90;;;;;;5094469;28;20204;-59
2023/10/28 11:43:34;;;;;;;0.00;0.00;;;15.10;99.90;;;;;;5094097;28;20168;-59
2023/10/28 11:46:00;;;;;;;0.00;0.00;;;15.10;99.90;;;;;;5094404;28;20179;-60
2023/10/28 11:48:26;;;;;;;0.00;0.00;;;15.20;99.90;;;;;;5094137;28;20513;-60
2023/10/28 11:50:53;;;;;;;0.00;0.00;;;15.20;99.90;;;;;;5094063;28;20172;-60
2023/10/28 11:53:28;;;;;;;0.00;0.00;;;15.20;99.90;;;;;;5094217;28;20168;-59
2023/10/28 11:55:55;;;;;;;0.00;0.00;;;15.10;99.90;;;;;;5094046;28;20262;-60
2023/10/28 11:58:24;;;;;;;0.00;0.00;;;15.10;99.90;;;;;;5093894;28;20207;-60
2023/10/28 12:00:52;;;;;;;0.00;0.00;;;15.10;99.90;;;;;;5093947;28;20176;-60
2023/10/28 12:03:18;;;;;;;0.00;0.00;;;15.10;99.90;;;;;;5092751;28;20640;-59
2023/10/28 12:05:44;;;;;;;0.00;0.00;;;15.10;99.90;;;;;;5093752;28;20172;-59
2023/10/28 12:08:11;;;;;;;0.10;0.10;;;14.90;99.90;;;;;;5093858;28;20196;-59
2023/10/28 12:10:43;;;;;;;0.05;0.05;;;14.80;99.90;;;;;;5093740;28;20219;-59
2023/10/28 12:13:09;;;;;;;0.00;0.00;;;14.70;99.90;;;;;;5093838;28;20657;-59
2023/10/28 12:15:35;;;;;;;0.00;0.00;;;14.50;99.90;;;;;;5093474;28;20188;-59
2023/10/28 12:18:00;;;;;;;0.63;0.32;;;14.30;99.90;;;;;;5093466;28;20208;-60
2023/10/28 12:20:27;;;;;;;0.13;0.13;;;14.20;99.90;;;;;;5092276;28;20183;-60
2023/10/28 12:22:52;;;;;;;0.00;0.00;;;14.10;99.90;;;;;;5093432;28;20249;-59
2023/10/28 12:25:18;;;;;;;0.00;0.00;;;13.90;99.90;;;;;;5093520;28;20180;-63
2023/10/28 12:27:44;;;;;;;0.00;0.00;;;13.80;99.90;;;;;;5093443;28;20199;-60
2023/10/28 12:30:09;;;;;;;0.00;0.00;;;13.70;99.90;;;;;;5093321;28;20168;-61
2023/10/28 12:32:35;;;;;;;0.10;0.10;;;13.70;99.90;;;;;;5092880;28;20306;-59
2023/10/28 12:35:01;;;;;;;0.00;0.00;;;13.60;99.90;;;;;;5093308;28;20180;-60
2023/10/28 12:37:26;;;;;;;0.00;0.00;;;13.50;99.90;;;;;;5091766;28;20200;-59
2023/10/28 12:39:52;;;;;;;0.00;0.00;;;13.50;99.90;;;;;;5093189;28;20172;-60
2023/10/28 12:42:18;;;;;;;0.00;0.00;;;13.50;99.90;;;;;;5093147;28;20242;-60
2023/10/28 12:44:43;;;;;;;0.00;0.00;;;13.40;99.90;;;;;;5092958;28;20219;-59
2023/10/28 12:47:09;;;;;;;0.00;0.00;;;13.30;99.90;;;;;;5093136;28;20179;-60